Time;durP1;ratioP1;P1;durP2;ratioP2;P2;SDS_P1;SDS_P2;PMS_P1;PMS_P2;Temp;Humidity;BMP_temperature;BMP_pressure;BME280_temperature;BME280_humidity;BME280_pressure;Samples;Min_cycle;Max_cycle;Signal;HPM_P1;HPM_P2
2023/04/08 00:00:16;;;;;;;25.77;17.35;;;7.00;99.90;;;;;;5116308;28;20452;-61
2023/04/08 00:02:43;;;;;;;23.38;16.85;;;7.00;99.90;;;;;;5116278;28;20046;-61
2023/04/08 00:05:10;;;;;;;23.48;17.85;;;6.90;99.90;;;;;;5115255;28;20040;-61
2023/04/08 00:07:37;;;;;;;28.00;17.58;;;6.90;99.90;;;;;;5116560;28;20036;-61
2023/04/08 00:10:05;;;;;;;26.33;17.25;;;6.90;99.90;;;;;;5115811;28;20383;-61
2023/04/08 00:12:32;;;;;;;25.38;17.10;;;6.90;99.90;;;;;;5116220;28;20031;-62
2023/04/08 00:14:59;;;;;;;23.23;18.02;;;6.90;99.90;;;;;;5116173;28;20093;-61
2023/04/08 00:17:25;;;;;;;28.00;18.35;;;6.80;99.90;;;;;;5116002;28;20482;-62
2023/04/08 00:19:54;;;;;;;26.80;17.75;;;6.80;99.90;;;;;;5116035;28;20058;-62
2023/04/08 00:22:21;;;;;;;26.15;18.15;;;6.80;99.90;;;;;;5115989;28;20100;-62
2023/04/08 00:24:47;;;;;;;22.02;17.50;;;6.70;99.90;;;;;;5114530;28;20101;-62
2023/04/08 00:27:14;;;;;;;28.45;17.10;;;6.70;99.90;;;;;;5115678;28;20088;-61
2023/04/08 00:29:41;;;;;;;27.27;17.65;;;6.70;99.90;;;;;;5115689;28;20429;-60
2023/04/08 00:32:08;;;;;;;25.48;18.40;;;6.70;99.90;;;;;;5115725;28;20047;-62
2023/04/08 00:34:36;;;;;;;24.98;18.45;;;6.70;99.90;;;;;;5115921;28;20101;-61
2023/04/08 00:37:02;;;;;;;27.13;17.30;;;6.70;99.90;;;;;;5115665;28;20398;-62
2023/04/08 00:39:29;;;;;;;23.13;18.25;;;6.70;99.90;;;;;;5115318;28;20043;-61
2023/04/08 00:41:56;;;;;;;22.75;17.33;;;6.60;99.90;;;;;;5115696;28;20490;-61
2023/04/08 00:44:23;;;;;;;27.70;17.63;;;6.60;99.90;;;;;;5115588;27;20469;-62
2023/04/08 00:46:50;;;;;;;25.90;17.83;;;6.60;99.90;;;;;;5114010;28;20048;-62
2023/04/08 00:49:17;;;;;;;25.95;17.55;;;6.60;99.90;;;;;;5113913;28;20046;-61
2023/04/08 00:51:44;;;;;;;24.67;16.73;;;6.60;99.90;;;;;;5113655;28;20122;-61
2023/04/08 00:54:11;;;;;;;23.08;16.88;;;6.60;99.90;;;;;;5114920;28;20405;-61
2023/04/08 00:56:37;;;;;;;23.25;17.05;;;6.50;99.90;;;;;;5113549;28;20043;-62
2023/04/08 00:59:04;;;;;;;27.17;18.10;;;6.60;99.90;;;;;;5113821;28;20043;-61
2023/04/08 01:01:31;;;;;;;25.50;18.35;;;6.50;99.90;;;;;;5113840;28;20455;-61
2023/04/08 01:03:58;;;;;;;26.63;17.73;;;6.50;99.90;;;;;;5115129;28;20062;-61
2023/04/08 01:06:25;;;;;;;26.60;17.40;;;6.50;99.90;;;;;;5115364;28;20065;-61
2023/04/08 01:08:52;;;;;;;27.00;16.67;;;6.50;99.90;;;;;;5115014;28;20093;-62
2023/04/08 01:11:20;;;;;;;25.55;17.15;;;6.40;99.90;;;;;;5114873;27;20039;-61
2023/04/08 01:13:46;;;;;;;25.73;17.67;;;6.40;99.90;;;;;;5113756;28;20051;-61
2023/04/08 01:16:13;;;;;;;28.80;17.70;;;6.40;99.90;;;;;;5113574;28;20443;-61
2023/04/08 01:18:40;;;;;;;23.60;16.58;;;6.30;99.90;;;;;;5115337;28;20127;-61
2023/04/08 01:21:07;;;;;;;25.48;17.27;;;6.30;99.90;;;;;;5113120;28;20092;-63
2023/04/08 01:23:34;;;;;;;22.35;16.27;;;6.20;99.90;;;;;;5114608;28;20044;-61
2023/04/08 01:26:01;;;;;;;22.60;16.83;;;6.20;99.90;;;;;;5113307;28;20040;-62
2023/04/08 01:28:27;;;;;;;23.65;15.10;;;6.20;99.90;;;;;;5113502;28;20092;-61
2023/04/08 01:30:54;;;;;;;24.85;15.95;;;6.10;99.90;;;;;;5113489;28;20413;-61
2023/04/08 01:33:21;;;;;;;23.67;16.42;;;6.10;99.90;;;;;;5113604;28;20122;-61
2023/04/08 01:35:48;;;;;;;23.88;15.10;;;6.10;99.90;;;;;;5096164;28;20043;-61
2023/04/08 01:38:15;;;;;;;21.90;14.88;;;6.10;99.90;;;;;;5099830;28;20040;-62
2023/04/08 01:40:41;;;;;;;21.73;14.82;;;6.10;99.90;;;;;;5094181;28;20070;-62
2023/04/08 01:43:08;;;;;;;23.48;15.95;;;6.10;99.90;;;;;;5094322;28;20051;-61
2023/04/08 01:45:37;;;;;;;26.52;15.50;;;6.10;99.90;;;;;;5094471;28;20040;-62
2023/04/08 01:48:03;;;;;;;21.08;15.88;;;6.00;99.90;;;;;;5093493;28;20048;-62
2023/04/08 01:50:30;;;;;;;22.30;15.75;;;6.00;99.90;;;;;;5094176;28;20479;-62
2023/04/08 01:52:57;;;;;;;23.05;15.65;;;5.90;99.90;;;;;;5094243;28;20036;-61
2023/04/08 01:55:24;;;;;;;22.30;14.75;;;5.90;99.90;;;;;;5092535;28;20044;-61
2023/04/08 01:57:51;;;;;;;21.90;14.93;;;5.90;99.90;;;;;;5094143;28;20040;-61
2023/04/08 02:00:17;;;;;;;22.10;15.82;;;5.90;99.90;;;;;;5092449;28;20089;-61
2023/04/08 02:02:47;;;;;;;21.33;14.70;;;5.90;99.90;;;;;;5094103;28;20064;-62
2023/04/08 02:05:14;;;;;;;22.10;15.02;;;5.90;99.90;;;;;;5092394;28;20067;-61
2023/04/08 02:07:41;;;;;;;23.85;15.15;;;5.80;99.90;;;;;;5091354;28;20143;-61
2023/04/08 02:10:08;;;;;;;21.00;14.77;;;5.80;99.90;;;;;;5092101;28;20451;-61
2023/04/08 02:12:34;;;;;;;22.33;15.00;;;5.70;99.90;;;;;;5093523;28;20483;-61
2023/04/08 02:15:01;;;;;;;22.52;15.48;;;5.70;99.90;;;;;;5093892;28;20089;-61
2023/04/08 02:17:28;;;;;;;23.90;15.68;;;5.70;99.90;;;;;;5092347;28;20109;-61
2023/04/08 02:19:55;;;;;;;23.10;15.57;;;5.60;99.90;;;;;;5093273;28;20517;-61
2023/04/08 02:22:23;;;;;;;24.10;15.38;;;5.60;99.90;;;;;;5093712;28;20115;-61
2023/04/08 02:24:49;;;;;;;18.52;14.23;;;5.60;99.90;;;;;;5093728;28;20086;-61
2023/04/08 02:27:16;;;;;;;22.58;15.75;;;5.50;99.90;;;;;;5092533;28;20044;-61
2023/04/08 02:29:43;;;;;;;25.27;15.48;;;5.50;99.90;;;;;;5093250;28;20117;-60
2023/04/08 02:32:10;;;;;;;25.10;14.85;;;5.50;99.90;;;;;;5092042;28;20459;-62
2023/04/08 02:34:38;;;;;;;21.13;14.00;;;5.40;99.90;;;;;;5112591;28;20054;-61
2023/04/08 02:37:04;;;;;;;19.35;14.13;;;5.40;99.90;;;;;;5114048;28;20039;-61
2023/04/08 02:39:31;;;;;;;20.20;13.30;;;5.40;99.90;;;;;;5113924;28;20074;-61
2023/04/08 02:41:58;;;;;;;17.80;13.95;;;5.40;99.90;;;;;;5112606;28;20071;-61
2023/04/08 02:44:25;;;;;;;18.45;13.30;;;5.30;99.90;;;;;;5114012;28;20036;-61
2023/04/08 02:46:51;;;;;;;18.02;13.57;;;5.30;99.90;;;;;;5111839;28;20040;-61
2023/04/08 02:49:18;;;;;;;19.67;14.10;;;5.30;99.90;;;;;;5112873;28;20119;-60
2023/04/08 02:51:45;;;;;;;19.25;13.50;;;5.30;99.90;;;;;;5113848;28;20366;-61
2023/04/08 02:54:12;;;;;;;20.05;13.40;;;5.20;99.90;;;;;;5113475;28;20562;-61
2023/04/08 02:56:38;;;;;;;20.17;13.15;;;5.20;99.90;;;;;;5112708;28;20055;-61
2023/04/08 02:59:05;;;;;;;19.20;12.77;;;5.20;99.90;;;;;;5113891;28;20039;-61
2023/04/08 03:01:32;;;;;;;20.52;11.93;;;5.20;99.90;;;;;;5113248;28;20122;-61
2023/04/08 03:03:59;;;;;;;20.63;12.43;;;5.10;99.90;;;;;;5112603;28;20085;-61
2023/04/08 03:06:26;;;;;;;20.42;12.90;;;5.10;99.90;;;;;;5113798;28;20039;-61
2023/04/08 03:08:52;;;;;;;19.40;12.68;;;5.10;99.90;;;;;;5113726;28;20032;-61
2023/04/08 03:11:20;;;;;;;17.40;12.48;;;5.10;99.90;;;;;;5113182;28;20039;-61
2023/04/08 03:13:47;;;;;;;17.23;12.23;;;5.00;99.90;;;;;;5113642;28;20510;-61
2023/04/08 03:16:13;;;;;;;17.33;12.20;;;5.00;99.90;;;;;;5095345;28;20048;-61
2023/04/08 03:18:40;;;;;;;18.50;11.18;;;5.00;99.90;;;;;;5113078;28;20406;-61
2023/04/08 03:21:07;;;;;;;16.17;10.52;;;5.00;99.90;;;;;;5116875;28;20044;-61
2023/04/08 03:23:34;;;;;;;17.15;11.13;;;5.00;99.90;;;;;;5116789;28;20036;-60
2023/04/08 03:26:01;;;;;;;18.98;11.75;;;4.90;99.90;;;;;;5116765;28;20462;-61
2023/04/08 03:28:27;;;;;;;20.42;11.45;;;4.90;99.90;;;;;;5116773;28;20039;-60
2023/04/08 03:30:54;;;;;;;14.98;11.13;;;4.90;99.90;;;;;;5117012;28;20131;-61
2023/04/08 03:33:21;;;;;;;17.45;11.73;;;4.90;99.90;;;;;;5116768;28;20039;-61
2023/04/08 03:35:48;;;;;;;20.90;11.10;;;4.90;99.90;;;;;;5116652;28;20040;-61
2023/04/08 03:38:15;;;;;;;15.65;10.77;;;4.80;99.90;;;;;;5103636;28;20046;-60
2023/04/08 03:40:42;;;;;;;18.48;10.02;;;4.80;99.90;;;;;;5096362;28;20039;-62
2023/04/08 03:43:10;;;;;;;15.20;10.23;;;4.80;99.90;;;;;;5096595;28;20044;-61
2023/04/08 03:45:37;;;;;;;18.02;9.93;;;4.80;99.90;;;;;;5096338;28;20048;-61
2023/04/08 03:48:04;;;;;;;14.85;9.93;;;4.80;99.90;;;;;;5096222;28;20074;-61
2023/04/08 03:50:30;;;;;;;17.95;10.00;;;4.80;99.90;;;;;;5096338;28;20115;-62
2023/04/08 03:52:57;;;;;;;15.35;9.10;;;4.70;99.90;;;;;;5096280;28;20040;-61
2023/04/08 03:55:24;;;;;;;16.17;9.52;;;4.70;99.90;;;;;;5095929;28;20036;-61
2023/04/08 03:57:50;;;;;;;13.13;9.77;;;4.60;99.90;;;;;;5096037;28;20126;-61
2023/04/08 04:00:17;;;;;;;18.08;9.52;;;4.60;99.90;;;;;;5096268;28;20036;-61
2023/04/08 04:02:44;;;;;;;13.27;9.07;;;4.60;99.90;;;;;;5095827;28;20379;-61
2023/04/08 04:05:11;;;;;;;13.15;9.68;;;4.60;99.90;;;;;;5096102;28;20074;-61
2023/04/08 04:07:38;;;;;;;16.13;9.55;;;4.60;99.90;;;;;;5095965;28;20093;-62
2023/04/08 04:10:05;;;;;;;15.20;9.60;;;4.60;99.90;;;;;;5095619;28;20501;-60
2023/04/08 04:12:31;;;;;;;14.50;8.82;;;4.50;99.90;;;;;;5095690;28;20085;-61
2023/04/08 04:14:58;;;;;;;14.38;9.30;;;4.50;99.90;;;;;;5095532;28;20455;-62
2023/04/08 04:17:25;;;;;;;14.80;9.38;;;4.50;99.90;;;;;;5095841;28;20115;-61
2023/04/08 04:19:52;;;;;;;15.25;10.05;;;4.50;99.90;;;;;;5094108;28;20069;-61
2023/04/08 04:22:19;;;;;;;13.43;9.00;;;4.50;99.90;;;;;;5095553;28;20074;-61
2023/04/08 04:24:46;;;;;;;15.68;9.15;;;4.40;99.90;;;;;;5095335;28;20036;-61
2023/04/08 04:27:12;;;;;;;11.73;9.43;;;4.40;99.90;;;;;;5095301;28;20047;-61
2023/04/08 04:29:39;;;;;;;18.25;10.85;;;4.40;99.90;;;;;;5095936;28;20379;-61
2023/04/08 04:32:06;;;;;;;14.57;10.00;;;4.30;99.90;;;;;;5096379;28;20374;-61
2023/04/08 04:34:33;;;;;;;23.33;10.98;;;4.30;99.90;;;;;;5095678;28;20101;-61
2023/04/08 04:36:59;;;;;;;17.00;10.35;;;4.30;99.90;;;;;;5096556;28;20067;-61
2023/04/08 04:39:26;;;;;;;21.95;10.57;;;4.20;99.90;;;;;;5115389;28;20039;-61
2023/04/08 04:41:53;;;;;;;15.45;10.52;;;4.20;99.90;;;;;;5115883;28;20075;-62
2023/04/08 04:44:20;;;;;;;16.90;10.05;;;4.20;99.90;;;;;;5115612;28;20042;-61
2023/04/08 04:46:46;;;;;;;14.82;9.00;;;4.20;99.90;;;;;;5115681;28;20044;-61
2023/04/08 04:49:13;;;;;;;14.90;9.30;;;4.20;99.90;;;;;;5115743;28;20466;-61
2023/04/08 04:51:40;;;;;;;13.05;8.82;;;4.10;99.90;;;;;;5115021;28;20363;-61
2023/04/08 04:54:07;;;;;;;14.35;8.90;;;4.10;99.90;;;;;;5114999;28;20477;-61
2023/04/08 04:56:34;;;;;;;18.63;9.52;;;4.10;99.90;;;;;;5114045;28;20044;-61
2023/04/08 04:59:01;;;;;;;15.80;9.20;;;4.00;99.90;;;;;;5114442;28;20089;-61
2023/04/08 05:01:27;;;;;;;17.15;9.27;;;4.00;99.90;;;;;;5115458;28;20066;-62
2023/04/08 05:03:55;;;;;;;16.90;9.77;;;4.00;99.90;;;;;;5114870;28;20486;-62
2023/04/08 05:06:21;;;;;;;13.30;9.95;;;4.00;99.90;;;;;;5115046;28;20108;-60
2023/04/08 05:08:50;;;;;;;16.70;9.75;;;4.00;99.90;;;;;;5114582;28;20041;-61
2023/04/08 05:11:17;;;;;;;13.73;8.65;;;3.90;99.90;;;;;;5115110;28;20036;-61
2023/04/08 05:13:44;;;;;;;23.15;10.52;;;3.90;99.90;;;;;;5115052;28;20044;-61
2023/04/08 05:16:10;;;;;;;17.58;10.52;;;3.90;99.90;;;;;;5115213;28;20040;-60
2023/04/08 05:18:37;;;;;;;16.80;10.35;;;3.90;99.90;;;;;;5113902;28;20051;-60
2023/04/08 05:21:04;;;;;;;16.50;9.65;;;3.90;99.90;;;;;;5114918;28;20089;-61
2023/04/08 05:23:31;;;;;;;15.88;9.90;;;3.90;99.90;;;;;;5115289;28;20096;-62
2023/04/08 05:25:57;;;;;;;14.30;9.10;;;3.90;99.90;;;;;;5115084;28;20114;-61
2023/04/08 05:28:24;;;;;;;17.15;9.38;;;3.90;99.90;;;;;;5114445;28;20039;-61
2023/04/08 05:30:51;;;;;;;17.55;9.38;;;3.80;99.90;;;;;;5115037;28;20040;-62
2023/04/08 05:33:17;;;;;;;14.57;8.82;;;3.80;99.90;;;;;;5114730;28;20093;-60
2023/04/08 05:35:44;;;;;;;14.38;7.75;;;3.80;99.90;;;;;;5114547;28;20086;-61
2023/04/08 05:38:11;;;;;;;13.02;8.35;;;3.80;99.90;;;;;;5113480;28;20046;-61
2023/04/08 05:40:38;;;;;;;20.88;8.63;;;3.80;99.90;;;;;;5114244;28;20044;-61
2023/04/08 05:43:04;;;;;;;14.05;8.13;;;3.80;99.90;;;;;;5113324;28;20040;-61
2023/04/08 05:45:31;;;;;;;16.00;8.30;;;3.80;99.90;;;;;;5114500;28;20040;-61
2023/04/08 05:47:58;;;;;;;15.05;8.63;;;3.80;99.90;;;;;;5114093;28;20072;-61
2023/04/08 05:50:25;;;;;;;15.23;8.52;;;3.80;99.90;;;;;;5114215;28;20059;-61
2023/04/08 05:52:51;;;;;;;16.42;8.85;;;3.80;99.90;;;;;;5114672;28;20040;-61
2023/04/08 05:55:18;;;;;;;11.32;8.85;;;3.90;99.90;;;;;;5114540;28;20071;-61
2023/04/08 05:57:45;;;;;;;14.00;9.32;;;3.90;99.90;;;;;;5114796;28;20492;-61
2023/04/08 06:00:11;;;;;;;11.95;8.82;;;3.90;99.90;;;;;;5114346;28;20063;-60
2023/04/08 06:02:38;;;;;;;15.38;8.48;;;3.90;99.90;;;;;;5114043;28;20071;-61
2023/04/08 06:05:05;;;;;;;17.33;8.15;;;3.90;99.90;;;;;;5114040;28;20130;-61
2023/04/08 06:07:32;;;;;;;17.40;8.38;;;3.90;99.90;;;;;;5113925;28;20036;-61
2023/04/08 06:09:59;;;;;;;16.90;8.80;;;4.00;99.90;;;;;;5113913;28;20071;-61
2023/04/08 06:12:26;;;;;;;16.45;9.13;;;4.00;99.90;;;;;;5114535;28;20035;-60
2023/04/08 06:14:53;;;;;;;15.25;8.77;;;4.00;99.90;;;;;;5114030;27;20040;-61
2023/04/08 06:17:20;;;;;;;14.55;8.93;;;4.10;99.90;;;;;;5113702;28;20127;-61
2023/04/08 06:19:47;;;;;;;15.40;8.45;;;4.10;99.90;;;;;;5113935;28;20040;-61
2023/04/08 06:22:13;;;;;;;14.75;8.75;;;4.10;99.90;;;;;;5114039;28;20393;-61
2023/04/08 06:24:40;;;;;;;16.38;9.18;;;4.10;99.90;;;;;;5113758;28;20047;-61
2023/04/08 06:27:07;;;;;;;13.88;9.45;;;4.20;99.90;;;;;;5113112;28;20388;-61
2023/04/08 06:29:33;;;;;;;14.93;9.60;;;4.20;99.90;;;;;;5113771;28;20068;-60
2023/04/08 06:32:00;;;;;;;14.10;9.73;;;4.30;99.90;;;;;;5114308;28;20044;-61
2023/04/08 06:34:27;;;;;;;16.42;10.23;;;4.30;99.90;;;;;;5113935;28;20039;-61
2023/04/08 06:36:54;;;;;;;16.50;10.05;;;4.30;99.90;;;;;;5113862;28;20394;-61
2023/04/08 06:39:20;;;;;;;15.13;10.15;;;4.40;99.90;;;;;;5112858;28;20549;-61
2023/04/08 06:41:47;;;;;;;16.05;10.63;;;4.40;99.90;;;;;;5114102;28;20101;-61
2023/04/08 06:44:26;;;;;;;22.65;10.35;;;4.50;99.90;;;;;;5112277;28;20040;-61
2023/04/08 06:46:53;;;;;;;18.85;10.77;;;4.50;99.90;;;;;;5113582;28;20044;-61
2023/04/08 06:49:19;;;;;;;16.63;11.02;;;4.60;99.90;;;;;;5113514;28;20039;-61
2023/04/08 06:51:46;;;;;;;15.07;10.52;;;4.60;99.90;;;;;;5113859;28;20043;-61
2023/04/08 06:54:13;;;;;;;20.65;11.60;;;4.70;99.90;;;;;;5115761;28;20118;-62
2023/04/08 06:56:40;;;;;;;18.17;11.10;;;4.70;99.90;;;;;;5117951;27;20039;-61
2023/04/08 06:59:06;;;;;;;22.95;11.63;;;4.80;99.90;;;;;;5117413;28;20470;-61
2023/04/08 07:01:33;;;;;;;21.23;13.00;;;4.90;99.90;;;;;;5117727;28;20055;-62
2023/04/08 07:04:01;;;;;;;20.67;11.48;;;5.00;99.90;;;;;;5117643;28;20100;-60
2023/04/08 07:06:28;;;;;;;17.40;11.85;;;5.00;99.90;;;;;;5117816;28;20435;-61
2023/04/08 07:08:54;;;;;;;25.75;11.90;;;5.10;99.90;;;;;;5117298;28;20043;-61
2023/04/08 07:11:21;;;;;;;21.23;12.52;;;5.10;99.90;;;;;;5117369;28;20044;-61
2023/04/08 07:13:48;;;;;;;21.73;12.93;;;5.20;99.90;;;;;;5117481;28;20485;-61
2023/04/08 07:16:15;;;;;;;18.58;11.75;;;5.20;99.90;;;;;;5117443;28;20119;-62
2023/04/08 07:18:42;;;;;;;19.50;12.30;;;5.30;99.90;;;;;;5117312;28;20043;-62
2023/04/08 07:21:09;;;;;;;22.33;11.50;;;5.40;99.90;;;;;;5117299;28;20039;-61
2023/04/08 07:23:36;;;;;;;20.05;12.20;;;5.50;99.90;;;;;;5116086;28;20043;-62
2023/04/08 07:26:04;;;;;;;18.40;10.93;;;5.60;99.90;;;;;;5117172;28;20046;-62
2023/04/08 07:28:30;;;;;;;20.17;11.18;;;5.70;99.90;;;;;;5116068;28;20043;-61
2023/04/08 07:30:57;;;;;;;19.27;12.30;;;5.70;99.90;;;;;;5117093;28;20036;-61
2023/04/08 07:33:25;;;;;;;21.20;11.75;;;5.80;99.90;;;;;;5116696;28;20479;-61
2023/04/08 07:35:52;;;;;;;22.25;12.13;;;5.90;99.90;;;;;;5117211;28;20046;-61
2023/04/08 07:38:19;;;;;;;28.02;12.32;;;6.00;99.90;;;;;;5104783;28;20044;-61
2023/04/08 07:40:46;;;;;;;19.35;10.93;;;6.00;99.90;;;;;;5096283;28;20040;-61
2023/04/08 07:43:12;;;;;;;18.52;10.90;;;6.10;99.90;;;;;;5096191;28;20071;-61
2023/04/08 07:45:39;;;;;;;20.67;11.38;;;6.20;99.90;;;;;;5096377;28;20040;-60
2023/04/08 07:48:06;;;;;;;17.58;11.55;;;6.30;99.90;;;;;;5095888;28;20050;-62
2023/04/08 07:50:33;;;;;;;18.13;11.70;;;6.40;99.90;;;;;;5096073;28;20437;-61
2023/04/08 07:53:19;;;;;;;22.23;12.70;;;6.40;99.90;;;;;;5096419;28;20128;-62
2023/04/08 07:55:49;;;;;;;18.83;11.70;;;6.50;99.90;;;;;;5095928;28;20032;-61
2023/04/08 07:58:16;;;;;;;20.67;10.95;;;6.60;99.90;;;;;;5096125;28;20040;-62
2023/04/08 08:00:42;;;;;;;18.15;10.40;;;6.70;99.90;;;;;;5096033;28;20055;-61
2023/04/08 08:03:09;;;;;;;17.92;10.45;;;6.80;99.90;;;;;;5095715;28;20119;-61
2023/04/08 08:05:37;;;;;;;15.23;10.65;;;6.90;99.90;;;;;;5095077;28;20429;-62
2023/04/08 08:08:03;;;;;;;15.85;9.85;;;7.00;99.90;;;;;;5095773;28;20386;-62
2023/04/08 08:10:30;;;;;;;16.13;10.48;;;7.10;99.90;;;;;;5095686;28;20048;-60
2023/04/08 08:12:57;;;;;;;16.42;10.68;;;7.20;99.90;;;;;;5095581;28;20539;-61
2023/04/08 08:15:24;;;;;;;15.30;10.23;;;7.20;99.90;;;;;;5094458;28;20055;-62
2023/04/08 08:17:50;;;;;;;16.08;10.98;;;7.30;99.90;;;;;;5095943;28;20071;-61
2023/04/08 08:20:17;;;;;;;17.75;10.52;;;7.40;99.90;;;;;;5095401;28;20468;-62
2023/04/08 08:22:44;;;;;;;16.55;9.63;;;7.40;99.90;;;;;;5095668;28;20047;-61
2023/04/08 08:25:23;;;;;;;13.98;8.30;;;7.50;99.90;;;;;;5095569;28;20051;-62
2023/04/08 08:27:52;;;;;;;12.82;8.30;;;7.60;99.90;;;;;;5094266;28;20378;-62
2023/04/08 08:30:20;;;;;;;12.38;7.55;;;7.60;99.90;;;;;;5095256;28;20044;-62
2023/04/08 08:32:47;;;;;;;14.63;8.70;;;7.70;99.90;;;;;;5095542;28;20719;-61
2023/04/08 08:35:14;;;;;;;13.15;8.57;;;7.70;99.90;;;;;;5095332;28;20036;-61
2023/04/08 08:37:41;;;;;;;13.45;8.68;;;7.80;99.90;;;;;;5099009;28;20198;-60
2023/04/08 08:40:08;;;;;;;13.80;8.15;;;8.00;99.90;;;;;;5115703;28;20110;-62
2023/04/08 08:42:35;;;;;;;12.45;7.97;;;8.10;99.90;;;;;;5115414;28;20118;-61
2023/04/08 08:45:02;;;;;;;12.55;8.05;;;8.20;99.90;;;;;;5115779;28;20035;-61
2023/04/08 08:47:29;;;;;;;12.35;7.30;;;8.20;99.90;;;;;;5114946;27;20071;-61
2023/04/08 08:49:56;;;;;;;14.73;8.30;;;8.30;99.90;;;;;;5115478;28;20112;-61
2023/04/08 08:52:22;;;;;;;12.32;7.88;;;8.40;99.90;;;;;;5115324;28;20114;-61
2023/04/08 08:54:49;;;;;;;11.07;6.60;;;8.50;99.90;;;;;;5115299;28;20458;-62
2023/04/08 08:57:17;;;;;;;16.20;7.43;;;8.60;99.90;;;;;;5115062;28;20063;-61
2023/04/08 08:59:44;;;;;;;11.55;6.97;;;8.70;99.90;;;;;;5115066;28;20055;-61
2023/04/08 09:02:10;;;;;;;10.65;6.60;;;8.80;99.90;;;;;;5115084;28;20093;-61
2023/04/08 09:04:38;;;;;;;13.85;6.28;;;8.90;99.90;;;;;;5115002;28;20051;-61
2023/04/08 09:07:05;;;;;;;10.60;6.82;;;9.00;99.90;;;;;;5115039;28;20088;-61
2023/04/08 09:09:32;;;;;;;11.30;6.85;;;9.10;99.90;;;;;;5114848;28;20043;-61
2023/04/08 09:11:58;;;;;;;11.68;6.93;;;9.10;99.90;;;;;;5115438;28;20462;-61
2023/04/08 09:14:25;;;;;;;13.63;6.10;;;9.20;99.90;;;;;;5115358;27;20036;-61
2023/04/08 09:16:52;;;;;;;8.68;5.57;;;9.30;99.90;;;;;;5114586;28;20114;-61
2023/04/08 09:19:19;;;;;;;8.77;5.40;;;9.40;99.90;;;;;;5114757;28;20054;-61
2023/04/08 09:21:46;;;;;;;6.40;3.03;;;9.50;99.90;;;;;;5115237;28;20031;-61
2023/04/08 09:24:13;;;;;;;6.43;3.38;;;9.70;99.90;;;;;;5114706;28;20043;-61
2023/04/08 09:26:41;;;;;;;5.70;3.83;;;9.80;99.90;;;;;;5113294;28;20043;-62
2023/04/08 09:29:08;;;;;;;7.22;4.63;;;9.90;99.90;;;;;;5114364;28;20143;-62
2023/04/08 09:31:51;;;;;;;9.55;5.63;;;10.00;99.90;;;;;;5115078;28;20039;-62
2023/04/08 09:34:22;;;;;;;8.38;5.63;;;10.20;99.90;;;;;;5114368;28;20039;-62
2023/04/08 09:36:49;;;;;;;5.43;2.92;;;10.30;99.90;;;;;;5114839;28;20038;-61
2023/04/08 09:39:16;;;;;;;7.15;2.58;;;10.50;99.90;;;;;;5097746;27;20063;-61
2023/04/08 09:41:42;;;;;;;5.40;3.25;;;10.60;99.90;;;;;;5093846;28;20048;-61
2023/04/08 09:44:09;;;;;;;5.13;3.58;;;10.70;99.90;;;;;;5092611;28;20063;-62
2023/04/08 09:46:36;;;;;;;8.07;4.10;;;10.70;99.90;;;;;;5092561;28;20044;-62
2023/04/08 09:49:03;;;;;;;7.97;4.25;;;10.70;99.90;;;;;;5093776;28;20139;-61
2023/04/08 09:51:31;;;;;;;9.77;4.57;;;10.80;99.90;;;;;;5092865;28;20040;-61
2023/04/08 09:53:57;;;;;;;7.88;4.78;;;10.80;99.90;;;;;;5093889;28;20098;-61
2023/04/08 09:56:24;;;;;;;7.22;4.35;;;10.90;99.90;;;;;;5092316;28;20048;-62
2023/04/08 09:58:51;;;;;;;7.38;4.50;;;10.90;99.90;;;;;;5093763;28;20101;-61
2023/04/08 10:01:18;;;;;;;5.50;4.28;;;10.90;99.90;;;;;;5092071;28;20048;-61
2023/04/08 10:03:45;;;;;;;7.88;4.50;;;10.80;99.90;;;;;;5092851;28;20111;-61
2023/04/08 10:06:12;;;;;;;4.47;2.97;;;10.90;99.90;;;;;;5094075;28;20129;-61
2023/04/08 10:08:38;;;;;;;9.15;3.40;;;10.90;99.90;;;;;;5093621;28;20048;-62
2023/04/08 10:11:06;;;;;;;6.07;3.47;;;10.80;99.90;;;;;;5093479;28;20040;-62
2023/04/08 10:13:32;;;;;;;6.50;3.55;;;10.80;99.90;;;;;;5093614;28;20402;-62
2023/04/08 10:15:59;;;;;;;6.47;4.43;;;10.80;99.90;;;;;;5093553;28;20406;-61
2023/04/08 10:18:26;;;;;;;7.85;4.15;;;10.90;99.90;;;;;;5093845;28;20066;-62
2023/04/08 10:20:53;;;;;;;8.35;3.90;;;11.00;99.90;;;;;;5093363;28;20053;-61
2023/04/08 10:23:20;;;;;;;6.53;4.00;;;11.00;99.90;;;;;;5093765;28;20505;-62
2023/04/08 10:25:47;;;;;;;7.63;4.60;;;11.10;99.90;;;;;;5093548;28;20552;-62
2023/04/08 10:28:14;;;;;;;8.73;4.80;;;11.10;99.90;;;;;;5093570;28;20040;-61
2023/04/08 10:30:41;;;;;;;7.15;5.00;;;11.20;99.90;;;;;;5079667;28;20051;-62
2023/04/08 10:33:07;;;;;;;8.80;4.72;;;11.20;99.90;;;;;;5103119;28;20069;-61
2023/04/08 10:35:34;;;;;;;8.23;4.85;;;11.20;99.90;;;;;;5118387;28;20394;-62
2023/04/08 10:38:01;;;;;;;8.77;4.85;;;11.30;99.90;;;;;;5117803;28;20119;-62
2023/04/08 10:40:28;;;;;;;8.60;4.90;;;11.40;99.90;;;;;;5118410;28;20043;-62
2023/04/08 10:42:55;;;;;;;8.38;4.95;;;11.50;99.90;;;;;;5117969;28;20038;-62
2023/04/08 10:45:22;;;;;;;8.68;5.10;;;11.70;99.90;;;;;;5118156;28;20047;-62
2023/04/08 10:47:48;;;;;;;10.80;5.50;;;11.70;99.90;;;;;;5115971;28;20522;-62
2023/04/08 10:50:15;;;;;;;8.23;4.85;;;11.60;99.90;;;;;;5117497;28;20043;-61
2023/04/08 10:52:42;;;;;;;7.38;4.97;;;11.60;99.90;;;;;;5117573;28;20062;-61
2023/04/08 10:55:09;;;;;;;6.18;4.43;;;11.70;99.90;;;;;;5117965;28;20462;-62
2023/04/08 10:57:36;;;;;;;9.82;4.78;;;11.70;99.90;;;;;;5117648;28;20044;-62
2023/04/08 11:00:04;;;;;;;8.93;6.07;;;11.70;99.90;;;;;;5117647;28;20046;-61
2023/04/08 11:02:31;;;;;;;10.15;5.40;;;11.70;99.90;;;;;;5117177;28;20078;-62
2023/04/08 11:04:58;;;;;;;7.43;4.78;;;11.80;99.90;;;;;;5117600;28;20050;-62
2023/04/08 11:07:26;;;;;;;10.63;5.05;;;11.90;99.90;;;;;;5117602;28;20400;-62
2023/04/08 11:09:52;;;;;;;11.13;5.15;;;12.00;99.90;;;;;;5117488;28;20036;-62
2023/04/08 11:12:20;;;;;;;8.73;4.43;;;12.10;99.90;;;;;;5117705;28;20063;-61
2023/04/08 11:14:48;;;;;;;5.70;4.20;;;12.20;99.90;;;;;;5117501;28;20047;-62
2023/04/08 11:17:15;;;;;;;8.43;3.90;;;12.30;99.90;;;;;;5117673;28;20040;-61
2023/04/08 11:19:42;;;;;;;7.47;4.20;;;12.40;99.90;;;;;;5117142;28;20040;-61
2023/04/08 11:22:09;;;;;;;7.85;3.92;;;12.60;99.90;;;;;;5116965;28;20071;-60
2023/04/08 11:24:36;;;;;;;7.28;4.38;;;12.70;99.90;;;;;;5117258;28;20048;-62
2023/04/08 11:27:03;;;;;;;8.38;4.00;;;12.80;99.90;;;;;;5117296;28;20089;-61
2023/04/08 11:29:29;;;;;;;8.57;4.10;;;12.90;99.90;;;;;;5116957;28;20040;-61
2023/04/08 11:31:56;;;;;;;5.60;3.53;;;12.90;99.90;;;;;;5117557;28;20044;-61
2023/04/08 11:34:23;;;;;;;7.70;3.50;;;13.00;99.90;;;;;;5117027;28;20043;-61
2023/04/08 11:36:50;;;;;;;5.60;3.38;;;13.00;99.90;;;;;;5116932;27;20093;-61
2023/04/08 11:39:17;;;;;;;7.00;3.55;;;13.10;99.90;;;;;;5100818;28;20055;-61
2023/04/08 11:41:43;;;;;;;5.60;3.63;;;13.20;99.90;;;;;;5096384;28;20047;-61
2023/04/08 11:44:10;;;;;;;6.65;3.30;;;13.30;99.70;;;;;;5096544;28;20384;-61
2023/04/08 11:46:39;;;;;;;5.90;3.63;;;13.40;99.90;;;;;;5096092;28;20094;-61
2023/04/08 11:49:06;;;;;;;6.60;3.65;;;13.50;99.30;;;;;;5096236;28;20036;-62
2023/04/08 11:51:33;;;;;;;5.38;3.45;;;13.50;99.90;;;;;;5096363;28;20089;-60
2023/04/08 11:54:01;;;;;;;6.55;3.10;;;13.60;99.90;;;;;;5096418;28;20036;-61
2023/04/08 11:56:29;;;;;;;7.45;3.40;;;13.70;99.20;;;;;;5096502;28;20074;-61
2023/04/08 11:58:56;;;;;;;7.35;3.10;;;13.80;99.20;;;;;;5078049;28;20054;-61
2023/04/08 12:01:23;;;;;;;6.40;2.92;;;13.80;98.90;;;;;;5095748;28;20047;-61
2023/04/08 12:03:49;;;;;;;8.73;3.63;;;13.80;98.40;;;;;;5096007;28;20040;-61
2023/04/08 12:06:17;;;;;;;6.63;3.60;;;13.70;98.30;;;;;;5095940;28;20043;-62
2023/04/08 12:08:43;;;;;;;5.10;2.90;;;13.60;98.80;;;;;;5095499;28;20044;-62
2023/04/08 12:11:11;;;;;;;5.95;3.35;;;13.50;98.60;;;;;;5096104;28;20079;-61
2023/04/08 12:13:45;;;;;;;7.30;3.60;;;13.50;98.90;;;;;;5095862;28;20044;-61
2023/04/08 12:16:13;;;;;;;4.85;3.05;;;13.60;98.80;;;;;;5095823;28;20050;-62
2023/04/08 12:18:40;;;;;;;6.28;3.33;;;13.50;98.50;;;;;;5095861;28;20035;-61
2023/04/08 12:21:07;;;;;;;6.22;3.13;;;13.50;98.60;;;;;;5095478;28;20085;-62
2023/04/08 12:23:33;;;;;;;5.57;2.83;;;13.40;98.20;;;;;;5096162;28;20044;-61
2023/04/08 12:26:01;;;;;;;5.40;3.28;;;13.20;97.50;;;;;;5095940;28;20040;-61
2023/04/08 12:28:27;;;;;;;5.03;2.72;;;13.20;98.30;;;;;;5095283;28;20087;-61
2023/04/08 12:30:54;;;;;;;6.55;3.50;;;13.20;97.70;;;;;;5095505;28;20107;-61
2023/04/08 12:33:21;;;;;;;7.03;3.60;;;13.20;98.40;;;;;;5100890;28;20479;-62
2023/04/08 12:35:48;;;;;;;5.85;3.35;;;13.30;98.20;;;;;;5116206;28;20092;-61
2023/04/08 12:38:14;;;;;;;7.05;3.30;;;13.40;98.20;;;;;;5116333;28;20039;-61
2023/04/08 12:40:41;;;;;;;5.25;3.33;;;13.50;97.50;;;;;;5114366;28;20544;-60